Time;durP1;ratioP1;P1;durP2;ratioP2;P2;SDS_P1;SDS_P2;PMS_P1;PMS_P2;Temp;Humidity;BMP_temperature;BMP_pressure;BME280_temperature;BME280_humidity;BME280_pressure;Samples;Min_cycle;Max_cycle;Signal;HPM_P1;HPM_P2
2023/07/29 00:01:08;;;;;;;3.42;2.83;;;17.00;99.90;;;;;;5046882;28;20029;-57
2023/07/29 00:03:34;;;;;;;3.30;2.83;;;17.00;99.90;;;;;;5055410;28;20483;-59
2023/07/29 00:05:59;;;;;;;3.00;2.80;;;17.00;99.90;;;;;;5051369;28;20017;-59
2023/07/29 00:08:25;;;;;;;2.90;2.70;;;17.00;99.90;;;;;;5061480;28;20074;-59
2023/07/29 00:10:50;;;;;;;3.78;3.30;;;17.00;99.90;;;;;;5043412;28;20024;-58
2023/07/29 00:13:16;;;;;;;2.70;2.50;;;16.90;99.90;;;;;;5046909;28;20032;-58
2023/07/29 00:15:41;;;;;;;3.35;3.05;;;16.90;99.90;;;;;;5047860;28;20035;-59
2023/07/29 00:18:07;;;;;;;3.30;3.00;;;16.90;99.90;;;;;;5056912;28;20517;-59
2023/07/29 00:20:32;;;;;;;3.97;3.55;;;16.90;99.90;;;;;;5053099;28;20384;-60
2023/07/29 00:22:58;;;;;;;5.03;3.78;;;16.90;99.90;;;;;;5060261;28;20478;-61
2023/07/29 00:25:24;;;;;;;4.85;3.45;;;16.90;99.90;;;;;;5055576;28;20434;-60
2023/07/29 00:27:50;;;;;;;3.60;3.30;;;16.90;99.90;;;;;;5058107;28;20036;-58
2023/07/29 00:30:15;;;;;;;3.33;3.03;;;16.80;99.90;;;;;;5052796;28;20025;-58
2023/07/29 00:32:41;;;;;;;3.90;3.50;;;16.70;99.90;;;;;;5050397;28;20446;-59
2023/07/29 00:35:07;;;;;;;3.30;3.00;;;16.80;99.90;;;;;;5051303;28;20065;-59
2023/07/29 00:37:32;;;;;;;4.60;4.05;;;16.80;99.90;;;;;;5056732;28;20021;-58
2023/07/29 00:39:58;;;;;;;4.57;4.18;;;16.70;99.90;;;;;;5060423;28;20369;-59
2023/07/29 00:42:24;;;;;;;4.50;3.75;;;16.70;99.90;;;;;;5055499;28;20050;-58
2023/07/29 00:44:51;;;;;;;5.13;4.28;;;16.70;99.90;;;;;;5042581;28;20031;-58
2023/07/29 00:47:18;;;;;;;3.83;3.38;;;16.70;99.90;;;;;;5050993;28;20021;-59
2023/07/29 00:49:44;;;;;;;3.80;3.30;;;16.70;99.90;;;;;;5057969;28;20033;-58
2023/07/29 00:52:12;;;;;;;3.75;3.35;;;16.70;99.90;;;;;;5051079;28;20170;-58
2023/07/29 00:54:39;;;;;;;5.30;3.97;;;16.70;99.90;;;;;;5037845;28;20057;-59
2023/07/29 00:57:06;;;;;;;3.72;3.42;;;16.70;99.90;;;;;;5051468;28;20048;-57
2023/07/29 00:59:31;;;;;;;3.85;3.20;;;16.80;99.90;;;;;;5048109;28;20120;-59
2023/07/29 01:01:58;;;;;;;4.05;3.63;;;16.70;99.90;;;;;;5042170;28;20526;-59
2023/07/29 01:04:24;;;;;;;4.63;3.13;;;16.70;99.90;;;;;;5049227;28;20020;-60
2023/07/29 01:06:58;;;;;;;4.55;4.15;;;16.80;99.90;;;;;;5057328;28;20394;-60
2023/07/29 01:09:48;;;;;;;4.32;3.92;;;16.70;99.90;;;;;;5054945;28;20025;-59
2023/07/29 01:12:35;;;;;;;4.22;3.83;;;16.80;99.90;;;;;;5037394;28;20091;-57
2023/07/29 01:15:14;;;;;;;4.18;3.78;;;16.80;99.90;;;;;;5045802;28;20021;-58
2023/07/29 01:17:47;;;;;;;5.85;4.25;;;16.80;99.90;;;;;;5049893;28;20100;-64
2023/07/29 01:20:20;;;;;;;4.07;3.65;;;16.80;99.90;;;;;;5042828;28;20021;-58
2023/07/29 01:22:46;;;;;;;3.95;3.47;;;16.80;99.90;;;;;;5058001;28;20032;-58
2023/07/29 01:25:11;;;;;;;4.20;3.80;;;16.80;99.90;;;;;;5054315;28;20029;-59
2023/07/29 01:27:37;;;;;;;4.00;3.67;;;16.80;99.90;;;;;;5054194;28;20021;-59
2023/07/29 01:30:03;;;;;;;3.90;3.33;;;16.80;99.90;;;;;;5052622;28;20123;-59
2023/07/29 01:32:35;;;;;;;4.20;3.83;;;16.80;99.90;;;;;;5054171;28;20025;-59
2023/07/29 01:35:16;;;;;;;5.60;3.90;;;16.80;99.90;;;;;;5058920;28;20017;-59
2023/07/29 01:37:43;;;;;;;4.97;4.00;;;16.80;99.90;;;;;;5057355;28;20116;-59
2023/07/29 01:40:10;;;;;;;4.13;3.63;;;16.80;99.90;;;;;;5059646;28;20063;-59
2023/07/29 01:42:36;;;;;;;4.53;3.88;;;16.80;99.90;;;;;;5057392;28;20083;-59
2023/07/29 01:45:02;;;;;;;4.95;3.60;;;16.80;99.90;;;;;;5057703;28;20013;-59
2023/07/29 01:47:28;;;;;;;3.35;3.08;;;16.80;99.90;;;;;;5055462;28;20744;-59
2023/07/29 01:49:53;;;;;;;3.72;3.40;;;16.90;99.90;;;;;;5046524;28;20397;-59
2023/07/29 01:52:19;;;;;;;3.60;3.30;;;16.90;99.90;;;;;;5049650;28;20033;-59
2023/07/29 01:54:44;;;;;;;3.78;3.47;;;16.90;99.90;;;;;;5050821;28;20037;-59
2023/07/29 01:57:10;;;;;;;3.67;3.38;;;16.90;99.90;;;;;;5053721;28;20124;-59
2023/07/29 01:59:35;;;;;;;4.50;3.97;;;16.90;99.90;;;;;;5047132;28;20025;-57
2023/07/29 02:02:01;;;;;;;4.05;3.65;;;16.90;99.90;;;;;;5043657;28;20087;-59
2023/07/29 02:04:26;;;;;;;4.00;3.30;;;16.90;99.90;;;;;;5044090;28;20053;-59
2023/07/29 02:06:52;;;;;;;3.90;3.60;;;16.90;99.90;;;;;;5052694;28;20032;-60
2023/07/29 02:09:18;;;;;;;4.45;3.40;;;16.90;99.90;;;;;;5050608;28;20037;-60
2023/07/29 02:11:43;;;;;;;3.88;3.58;;;16.90;99.90;;;;;;5051958;28;20028;-61
2023/07/29 02:14:09;;;;;;;5.25;4.03;;;16.90;99.90;;;;;;5055442;28;20013;-58
2023/07/29 02:16:34;;;;;;;4.65;4.15;;;17.00;99.90;;;;;;5051059;28;20036;-61
2023/07/29 02:19:00;;;;;;;3.88;3.40;;;17.00;99.90;;;;;;5046982;28;20037;-62
2023/07/29 02:21:25;;;;;;;4.93;3.95;;;17.00;99.90;;;;;;5050908;28;20040;-63
2023/07/29 02:23:51;;;;;;;4.53;4.13;;;17.00;99.90;;;;;;5063278;22;20044;-63
2023/07/29 02:26:17;;;;;;;5.30;3.92;;;17.00;99.90;;;;;;5022108;28;20028;-64
2023/07/29 02:28:43;;;;;;;4.85;4.43;;;17.00;99.90;;;;;;5018077;28;20033;-63
2023/07/29 02:31:22;;;;;;;7.25;4.53;;;17.00;99.90;;;;;;5033324;28;20025;-65
2023/07/29 02:33:49;;;;;;;5.63;4.85;;;17.00;99.90;;;;;;5030212;28;20034;-65
2023/07/29 02:36:15;;;;;;;5.90;5.30;;;17.00;99.90;;;;;;5031179;28;20021;-64
2023/07/29 02:38:41;;;;;;;5.18;4.68;;;17.10;99.90;;;;;;5025860;28;20053;-63
2023/07/29 02:41:09;;;;;;;5.65;5.15;;;17.10;99.90;;;;;;5036493;28;20021;-63
2023/07/29 02:43:36;;;;;;;5.35;4.85;;;17.10;99.90;;;;;;5029723;28;20064;-63
2023/07/29 02:46:02;;;;;;;5.13;4.63;;;17.10;99.90;;;;;;5037337;28;20024;-63
2023/07/29 02:48:28;;;;;;;4.45;4.05;;;17.10;99.90;;;;;;5033688;28;20134;-62
2023/07/29 02:50:54;;;;;;;5.88;5.18;;;17.10;99.90;;;;;;5035317;28;20025;-62
2023/07/29 02:53:24;;;;;;;4.45;4.05;;;17.10;99.90;;;;;;5031374;28;20128;-62
2023/07/29 02:55:50;;;;;;;4.43;4.03;;;17.10;99.90;;;;;;5010039;28;20034;-62
2023/07/29 02:58:16;;;;;;;5.53;5.03;;;17.10;99.90;;;;;;5034266;28;20094;-63
2023/07/29 03:00:41;;;;;;;6.07;5.47;;;17.10;99.90;;;;;;5030950;28;20034;-61
2023/07/29 03:03:10;;;;;;;5.07;4.50;;;17.10;99.90;;;;;;5028964;28;20021;-61
2023/07/29 03:05:35;;;;;;;5.63;5.00;;;17.10;99.90;;;;;;5030035;28;20025;-61
2023/07/29 03:08:01;;;;;;;6.10;5.60;;;17.10;99.90;;;;;;5032486;28;20017;-61
2023/07/29 03:10:27;;;;;;;6.78;6.07;;;17.20;99.90;;;;;;5017393;28;20036;-60
2023/07/29 03:12:56;;;;;;;5.22;4.72;;;17.20;99.90;;;;;;5029797;28;20021;-60
2023/07/29 03:15:25;;;;;;;5.97;5.38;;;17.20;99.90;;;;;;5037083;28;20053;-62
2023/07/29 03:17:53;;;;;;;6.45;5.47;;;17.20;99.90;;;;;;5023602;28;20017;-60
2023/07/29 03:20:19;;;;;;;5.63;5.13;;;17.20;99.90;;;;;;5019900;28;20398;-60
2023/07/29 03:22:45;;;;;;;6.28;5.68;;;17.20;99.90;;;;;;5030037;28;20124;-60
2023/07/29 03:25:11;;;;;;;6.38;5.82;;;17.20;99.90;;;;;;5034650;28;20511;-59
2023/07/29 03:27:36;;;;;;;5.45;4.95;;;17.30;99.90;;;;;;5038123;28;20040;-61
2023/07/29 03:30:03;;;;;;;5.95;5.45;;;17.30;99.90;;;;;;5030844;28;20025;-59
2023/07/29 03:32:29;;;;;;;6.80;6.18;;;17.30;99.90;;;;;;5038106;28;20786;-61
2023/07/29 03:34:54;;;;;;;6.13;5.50;;;17.30;99.90;;;;;;5011659;28;20136;-60
2023/07/29 03:37:21;;;;;;;6.90;5.78;;;17.30;99.90;;;;;;5037326;28;20033;-59
2023/07/29 03:39:46;;;;;;;6.30;5.70;;;17.30;99.90;;;;;;5028358;28;20026;-60
2023/07/29 03:42:12;;;;;;;6.53;5.93;;;17.30;99.90;;;;;;5015526;28;20036;-60
2023/07/29 03:44:39;;;;;;;7.30;6.60;;;17.30;99.90;;;;;;5030938;28;20120;-60
2023/07/29 03:47:05;;;;;;;7.35;6.65;;;17.30;99.90;;;;;;5030626;28;20021;-59
2023/07/29 03:49:31;;;;;;;8.93;8.02;;;17.30;99.90;;;;;;5032224;28;20032;-59
2023/07/29 03:51:57;;;;;;;7.75;6.95;;;17.30;99.90;;;;;;5028048;28;20056;-60
2023/07/29 03:54:22;;;;;;;7.45;6.65;;;17.30;99.90;;;;;;5031962;28;20048;-60
2023/07/29 03:56:48;;;;;;;7.28;6.35;;;17.30;99.90;;;;;;5026861;28;20103;-60
2023/07/29 03:59:14;;;;;;;8.73;7.40;;;17.30;99.90;;;;;;5032044;28;20243;-60
2023/07/29 04:01:39;;;;;;;9.52;8.60;;;17.40;99.90;;;;;;5031469;28;20036;-59
2023/07/29 04:04:05;;;;;;;9.65;8.73;;;17.40;99.90;;;;;;5030136;28;20033;-59
2023/07/29 04:06:30;;;;;;;8.43;7.63;;;17.40;99.90;;;;;;5036434;28;20052;-58
2023/07/29 04:08:56;;;;;;;10.27;9.20;;;17.40;99.90;;;;;;5026828;28;20136;-60
2023/07/29 04:11:23;;;;;;;10.98;9.88;;;17.50;99.90;;;;;;5034801;28;20560;-59
2023/07/29 04:13:49;;;;;;;11.18;9.90;;;17.50;99.90;;;;;;5012922;28;20126;-59
2023/07/29 04:16:14;;;;;;;11.60;10.45;;;17.50;99.90;;;;;;5013294;28;20037;-59
2023/07/29 04:18:40;;;;;;;10.70;9.13;;;17.60;99.90;;;;;;5031594;28;20078;-56
2023/07/29 04:21:06;;;;;;;9.00;8.15;;;17.50;99.90;;;;;;5028929;28;20022;-58
2023/07/29 04:23:31;;;;;;;8.68;7.88;;;17.60;99.90;;;;;;5029836;28;20035;-59
2023/07/29 04:25:57;;;;;;;11.32;10.13;;;17.60;99.90;;;;;;5027663;28;20029;-59
2023/07/29 04:28:22;;;;;;;13.07;10.65;;;17.60;99.90;;;;;;5032411;28;20395;-56
2023/07/29 04:30:48;;;;;;;13.02;11.70;;;17.70;99.90;;;;;;5030553;28;20037;-60
2023/07/29 04:33:13;;;;;;;14.88;12.32;;;17.70;99.90;;;;;;5033800;28;20083;-58
2023/07/29 04:35:39;;;;;;;14.10;12.70;;;17.70;99.90;;;;;;5030718;28;20290;-58
2023/07/29 04:38:04;;;;;;;14.60;13.05;;;17.80;99.90;;;;;;5032523;28;20037;-59
2023/07/29 04:40:33;;;;;;;14.68;13.18;;;17.80;99.90;;;;;;5029137;28;20029;-59
2023/07/29 04:43:01;;;;;;;14.52;13.10;;;17.80;99.90;;;;;;5013712;28;20025;-57
2023/07/29 04:45:30;;;;;;;17.00;13.63;;;17.80;99.90;;;;;;5034996;28;20109;-59
2023/07/29 04:47:56;;;;;;;16.30;14.45;;;17.90;99.90;;;;;;5030819;28;20021;-58
2023/07/29 04:50:21;;;;;;;19.58;14.95;;;17.90;99.90;;;;;;5003755;28;20341;-59
2023/07/29 04:52:47;;;;;;;18.50;14.40;;;17.90;99.90;;;;;;5028046;28;20024;-59
2023/07/29 04:55:13;;;;;;;15.13;13.52;;;17.90;99.90;;;;;;5029698;28;20042;-60
2023/07/29 04:57:38;;;;;;;13.52;12.13;;;18.00;99.90;;;;;;5028162;28;20037;-57
2023/07/29 05:00:04;;;;;;;18.17;15.15;;;18.00;99.90;;;;;;5012680;28;20098;-58
2023/07/29 05:02:30;;;;;;;14.85;13.25;;;18.00;99.90;;;;;;5016146;28;20078;-57
2023/07/29 05:04:55;;;;;;;14.50;12.25;;;18.00;99.90;;;;;;5030402;28;20549;-59
2023/07/29 05:07:21;;;;;;;16.80;15.00;;;18.00;99.90;;;;;;5029349;28;20032;-59
2023/07/29 05:09:47;;;;;;;15.88;12.98;;;18.00;99.90;;;;;;5008262;28;20090;-60
2023/07/29 05:12:13;;;;;;;15.40;13.77;;;18.10;99.90;;;;;;5020735;28;20041;-59
2023/07/29 05:14:39;;;;;;;21.80;16.38;;;18.10;99.90;;;;;;5030750;28;20116;-59
2023/07/29 05:17:05;;;;;;;19.70;15.57;;;18.10;99.90;;;;;;5028897;28;20060;-60
2023/07/29 05:19:31;;;;;;;19.02;15.32;;;18.10;99.90;;;;;;5029555;28;20029;-59
2023/07/29 05:21:57;;;;;;;21.90;16.35;;;18.10;99.90;;;;;;5027556;28;20029;-58
2023/07/29 05:24:24;;;;;;;17.52;14.75;;;18.10;99.90;;;;;;5028490;28;20620;-59
2023/07/29 05:26:49;;;;;;;17.95;14.98;;;18.10;99.90;;;;;;5031062;28;20597;-59
2023/07/29 05:29:15;;;;;;;16.58;14.77;;;18.20;99.90;;;;;;5032722;28;20099;-59
2023/07/29 05:31:41;;;;;;;14.05;12.60;;;18.20;99.90;;;;;;5028065;28;20048;-59
2023/07/29 05:34:06;;;;;;;19.95;14.73;;;18.30;99.90;;;;;;5029246;28;20100;-59
2023/07/29 05:36:32;;;;;;;18.20;14.52;;;18.30;99.90;;;;;;5025789;28;20038;-56
2023/07/29 05:38:58;;;;;;;16.23;13.75;;;18.30;99.90;;;;;;5031790;28;20048;-59
2023/07/29 05:41:23;;;;;;;16.38;14.10;;;18.30;99.90;;;;;;5027850;28;20037;-58
2023/07/29 05:43:49;;;;;;;17.45;14.65;;;18.40;99.90;;;;;;5030404;28;20031;-59
2023/07/29 05:46:15;;;;;;;15.35;13.02;;;18.40;99.90;;;;;;5031931;28;20111;-59
2023/07/29 05:48:40;;;;;;;19.63;14.25;;;18.40;99.90;;;;;;5028547;28;20753;-58
2023/07/29 05:51:07;;;;;;;17.92;14.25;;;18.50;99.90;;;;;;5031513;28;20037;-58
2023/07/29 05:53:33;;;;;;;18.13;15.07;;;18.50;99.90;;;;;;5026646;28;20052;-58
2023/07/29 05:55:58;;;;;;;20.48;15.98;;;18.60;99.90;;;;;;5025164;28;20105;-57
2023/07/29 05:58:24;;;;;;;17.40;15.15;;;18.60;99.90;;;;;;5025892;28;20033;-59
2023/07/29 06:00:49;;;;;;;16.05;13.82;;;18.70;99.90;;;;;;5030457;28;20037;-58
2023/07/29 06:03:15;;;;;;;17.33;14.25;;;18.70;99.90;;;;;;5009294;28;20021;-54
2023/07/29 06:05:40;;;;;;;17.83;14.57;;;18.80;99.90;;;;;;5027524;28;20033;-58
2023/07/29 06:08:08;;;;;;;19.50;15.52;;;18.80;99.90;;;;;;5008508;28;20044;-58
2023/07/29 06:10:34;;;;;;;18.13;16.23;;;18.80;99.90;;;;;;5028908;28;20112;-57
2023/07/29 06:12:59;;;;;;;20.00;16.20;;;18.80;99.90;;;;;;5029788;28;20105;-55
2023/07/29 06:15:25;;;;;;;16.23;14.52;;;18.80;99.90;;;;;;5034930;28;20048;-59
2023/07/29 06:17:50;;;;;;;18.38;15.05;;;18.80;99.90;;;;;;5026365;28;20021;-57
2023/07/29 06:20:16;;;;;;;20.58;15.82;;;18.80;99.90;;;;;;5031567;28;20041;-56
2023/07/29 06:22:43;;;;;;;17.17;15.20;;;18.80;99.90;;;;;;5028721;28;20041;-58
2023/07/29 06:25:08;;;;;;;17.88;15.07;;;18.80;99.90;;;;;;5035038;28;20466;-53
2023/07/29 06:27:34;;;;;;;15.75;13.63;;;18.80;99.90;;;;;;5032891;28;20030;-58
2023/07/29 06:29:59;;;;;;;15.43;13.82;;;18.80;99.90;;;;;;5031538;28;20056;-56
2023/07/29 06:32:25;;;;;;;18.33;15.38;;;18.90;99.90;;;;;;5016217;28;20076;-59
2023/07/29 06:34:51;;;;;;;14.43;12.55;;;18.90;99.90;;;;;;5029989;28;20033;-58
2023/07/29 06:37:17;;;;;;;16.58;13.73;;;19.00;99.90;;;;;;5019458;28;20461;-57
2023/07/29 06:39:43;;;;;;;16.92;13.50;;;19.00;99.90;;;;;;5029678;28;20045;-57
2023/07/29 06:42:08;;;;;;;14.52;12.75;;;19.00;99.90;;;;;;5016763;28;20056;-58
2023/07/29 06:44:34;;;;;;;12.85;11.50;;;19.10;99.90;;;;;;5032464;28;20026;-57
2023/07/29 06:46:59;;;;;;;14.00;12.50;;;19.10;99.90;;;;;;5030277;28;20029;-58
2023/07/29 06:49:25;;;;;;;15.02;13.30;;;19.10;99.90;;;;;;5017222;28;20032;-56
2023/07/29 06:51:50;;;;;;;18.15;14.23;;;19.20;99.90;;;;;;5029747;28;20025;-57
2023/07/29 06:54:17;;;;;;;13.23;11.85;;;19.20;99.90;;;;;;5036400;28;20045;-57
2023/07/29 06:56:42;;;;;;;15.52;13.90;;;19.30;99.90;;;;;;5029431;28;20029;-55
2023/07/29 06:59:08;;;;;;;14.65;12.48;;;19.30;99.90;;;;;;5034089;28;20501;-56
2023/07/29 07:01:34;;;;;;;13.52;12.10;;;19.30;99.90;;;;;;5032987;28;20029;-55
2023/07/29 07:04:00;;;;;;;13.32;11.73;;;19.30;99.90;;;;;;5031062;28;20300;-59
2023/07/29 07:06:26;;;;;;;11.82;10.63;;;19.40;99.90;;;;;;5038320;28;20429;-59
2023/07/29 07:08:51;;;;;;;11.85;10.45;;;19.50;99.90;;;;;;5011413;28;20049;-57
2023/07/29 07:11:18;;;;;;;14.35;12.85;;;19.60;99.90;;;;;;5033076;28;20021;-55
2023/07/29 07:13:44;;;;;;;13.95;12.45;;;19.60;99.90;;;;;;5032328;28;20032;-58
2023/07/29 07:16:09;;;;;;;13.20;11.85;;;19.60;99.90;;;;;;5035942;28;20037;-57
2023/07/29 07:18:35;;;;;;;13.15;11.65;;;19.60;99.90;;;;;;5029037;28;20024;-59
2023/07/29 07:21:01;;;;;;;14.40;12.60;;;19.60;99.90;;;;;;5031240;28;20021;-59
2023/07/29 07:23:26;;;;;;;13.68;12.27;;;19.60;99.90;;;;;;5030999;28;20025;-58
2023/07/29 07:25:52;;;;;;;14.32;12.77;;;19.50;99.90;;;;;;5033461;28;20039;-59
2023/07/29 07:28:17;;;;;;;10.38;9.30;;;19.50;99.90;;;;;;5033630;28;20025;-59
2023/07/29 07:30:43;;;;;;;15.48;12.60;;;19.50;99.90;;;;;;5027822;28;20436;-57
2023/07/29 07:33:08;;;;;;;13.75;12.35;;;19.50;99.90;;;;;;5014708;28;20010;-58
2023/07/29 07:35:34;;;;;;;13.35;11.70;;;19.50;99.90;;;;;;5010965;28;20047;-55
2023/07/29 07:38:02;;;;;;;14.55;12.85;;;19.60;99.90;;;;;;5030554;28;20512;-58
2023/07/29 07:40:27;;;;;;;13.07;11.80;;;19.60;99.90;;;;;;5030550;28;20029;-58
2023/07/29 07:42:53;;;;;;;14.52;12.00;;;19.60;99.90;;;;;;5032082;28;20400;-59
2023/07/29 07:45:19;;;;;;;15.90;12.68;;;19.60;99.90;;;;;;5036059;28;20026;-54
2023/07/29 07:47:45;;;;;;;13.48;11.82;;;19.60;99.90;;;;;;5032613;28;20021;-58
2023/07/29 07:50:10;;;;;;;13.05;11.75;;;19.60;99.90;;;;;;5034235;28;20083;-57
2023/07/29 07:52:36;;;;;;;16.08;11.48;;;19.60;99.90;;;;;;5028504;28;20341;-59
2023/07/29 07:55:01;;;;;;;14.40;12.88;;;19.60;99.90;;;;;;5029679;28;20061;-58
2023/07/29 07:57:27;;;;;;;16.15;13.80;;;19.70;99.90;;;;;;4996349;28;20090;-52
2023/07/29 07:59:53;;;;;;;14.65;13.02;;;19.70;99.90;;;;;;5032547;28;20037;-54
2023/07/29 08:02:19;;;;;;;18.27;13.70;;;19.80;99.90;;;;;;5035548;28;20507;-55
2023/07/29 08:04:44;;;;;;;15.88;14.23;;;19.70;99.90;;;;;;5032096;28;20030;-60
2023/07/29 08:07:10;;;;;;;13.00;11.75;;;19.80;99.90;;;;;;5029907;28;20112;-58
2023/07/29 08:09:35;;;;;;;12.93;11.70;;;19.70;99.90;;;;;;5028360;28;20104;-58
2023/07/29 08:12:01;;;;;;;15.68;13.45;;;19.70;99.90;;;;;;5031730;28;20029;-58
2023/07/29 08:14:27;;;;;;;16.85;13.57;;;19.80;99.90;;;;;;5031406;28;20104;-55
2023/07/29 08:16:52;;;;;;;15.10;13.50;;;19.80;99.90;;;;;;5033942;28;20025;-56
2023/07/29 08:19:18;;;;;;;15.43;13.82;;;19.80;99.90;;;;;;5030912;28;20025;-57
2023/07/29 08:21:43;;;;;;;15.60;13.95;;;19.80;99.90;;;;;;5033333;28;20050;-57
2023/07/29 08:24:09;;;;;;;17.95;14.80;;;19.80;99.90;;;;;;5029157;28;20079;-55
2023/07/29 08:26:34;;;;;;;13.65;12.35;;;19.80;99.90;;;;;;5032596;28;20029;-57
2023/07/29 08:29:00;;;;;;;16.02;12.93;;;19.90;99.90;;;;;;5026224;28;20422;-56
2023/07/29 08:31:25;;;;;;;14.85;13.07;;;20.00;99.90;;;;;;5031052;28;20053;-51
2023/07/29 08:33:51;;;;;;;17.88;16.08;;;20.00;99.90;;;;;;5016566;28;20077;-52
2023/07/29 08:36:17;;;;;;;15.73;14.15;;;19.90;99.90;;;;;;5012191;28;20025;-55
2023/07/29 08:38:42;;;;;;;17.20;14.30;;;19.90;99.90;;;;;;5015153;28;20653;-56
2023/07/29 08:41:16;;;;;;;14.20;12.13;;;19.90;99.90;;;;;;5029566;28;20284;-55
2023/07/29 08:44:02;;;;;;;16.60;14.80;;;19.90;99.90;;;;;;5033062;28;20109;-55
2023/07/29 08:46:29;;;;;;;17.45;15.10;;;19.80;99.90;;;;;;5014077;28;20021;-52
2023/07/29 08:48:55;;;;;;;15.52;13.23;;;19.90;99.90;;;;;;5016068;28;20136;-53
2023/07/29 08:51:25;;;;;;;16.23;14.50;;;19.80;99.90;;;;;;5031678;28;20022;-55
2023/07/29 08:53:52;;;;;;;15.90;13.63;;;19.80;99.90;;;;;;5013593;28;20584;-55
2023/07/29 08:56:18;;;;;;;18.80;15.93;;;19.80;99.90;;;;;;5012943;28;20060;-53
2023/07/29 08:58:43;;;;;;;19.40;14.57;;;19.80;99.90;;;;;;5026100;28;20069;-51
2023/07/29 09:01:09;;;;;;;22.20;15.77;;;19.80;99.90;;;;;;5032763;28;20098;-54
2023/07/29 09:03:34;;;;;;;20.65;16.45;;;19.90;99.90;;;;;;5027929;28;20033;-51
2023/07/29 09:06:02;;;;;;;22.90;17.15;;;19.90;99.90;;;;;;5033838;28;20032;-56
2023/07/29 09:08:29;;;;;;;22.50;16.45;;;20.00;99.90;;;;;;5030282;28;20029;-52
2023/07/29 09:10:55;;;;;;;18.63;16.17;;;20.00;99.90;;;;;;5031308;28;20028;-56
2023/07/29 09:13:21;;;;;;;18.38;15.80;;;20.10;99.90;;;;;;5031430;28;20075;-53
2023/07/29 09:15:47;;;;;;;19.23;15.43;;;20.10;99.90;;;;;;5033431;28;20021;-55
2023/07/29 09:18:16;;;;;;;18.85;15.20;;;20.20;99.90;;;;;;5029304;28;20047;-57
2023/07/29 09:20:42;;;;;;;20.02;16.70;;;20.30;99.90;;;;;;5033377;28;20100;-53
2023/07/29 09:23:10;;;;;;;19.25;16.70;;;20.40;99.90;;;;;;5026181;28;20079;-53
2023/07/29 09:25:36;;;;;;;22.35;16.77;;;20.40;99.90;;;;;;5028557;28;20605;-56
2023/07/29 09:28:11;;;;;;;18.70;15.90;;;20.50;99.90;;;;;;5032908;28;20017;-56
2023/07/29 09:30:42;;;;;;;15.35;13.75;;;20.50;99.90;;;;;;5027764;28;20075;-54
2023/07/29 09:33:08;;;;;;;15.45;13.55;;;20.50;99.90;;;;;;5032803;28;20097;-57
2023/07/29 09:35:35;;;;;;;16.75;13.57;;;20.60;99.90;;;;;;5030165;28;20100;-57
2023/07/29 09:38:06;;;;;;;14.70;13.20;;;20.60;99.90;;;;;;5031948;28;20049;-57
2023/07/29 09:40:38;;;;;;;15.60;12.40;;;20.70;99.90;;;;;;5026982;28;20036;-55
2023/07/29 09:43:05;;;;;;;16.42;13.25;;;20.70;99.90;;;;;;5030254;28;20425;-57
2023/07/29 09:45:33;;;;;;;18.95;13.82;;;20.90;99.90;;;;;;5034275;28;20061;-57
2023/07/29 09:47:59;;;;;;;12.88;11.45;;;21.00;99.90;;;;;;5030333;28;20554;-55
2023/07/29 09:50:26;;;;;;;13.27;11.93;;;21.00;99.90;;;;;;5032602;28;20041;-56
2023/07/29 09:52:55;;;;;;;12.85;11.50;;;21.20;99.90;;;;;;5029363;28;20030;-56
2023/07/29 09:55:24;;;;;;;13.35;11.68;;;21.40;99.90;;;;;;5030532;28;20028;-52
2023/07/29 09:58:00;;;;;;;13.93;10.82;;;21.70;99.90;;;;;;5017634;28;20461;-56
2023/07/29 10:00:26;;;;;;;9.93;8.98;;;21.90;99.90;;;;;;5027058;28;20053;-57
2023/07/29 10:02:52;;;;;;;11.27;9.55;;;22.00;99.90;;;;;;5034773;28;20036;-58
2023/07/29 10:05:18;;;;;;;10.90;7.40;;;22.20;99.90;;;;;;5025425;28;20104;-56
2023/07/29 10:07:48;;;;;;;9.10;7.35;;;22.30;99.90;;;;;;5033123;28;20083;-56
2023/07/29 10:10:14;;;;;;;8.60;7.53;;;22.30;99.90;;;;;;5029485;28;20603;-56
2023/07/29 10:12:42;;;;;;;6.75;6.13;;;22.40;99.90;;;;;;5029217;28;20045;-55
2023/07/29 10:15:08;;;;;;;7.22;6.57;;;22.40;99.90;;;;;;5030971;28;20021;-57
2023/07/29 10:17:37;;;;;;;7.95;7.15;;;22.40;99.90;;;;;;5026214;28;20067;-56
2023/07/29 10:20:08;;;;;;;6.65;5.97;;;22.50;99.90;;;;;;5030049;28;20032;-57
2023/07/29 10:22:39;;;;;;;8.50;7.10;;;22.50;99.90;;;;;;5025547;28;20391;-56
2023/07/29 10:25:29;;;;;;;6.75;5.70;;;22.60;99.90;;;;;;5029934;28;20024;-55
2023/07/29 10:28:05;;;;;;;5.75;5.07;;;22.70;99.90;;;;;;5004422;28;20060;-58
2023/07/29 10:30:32;;;;;;;7.63;5.47;;;22.80;99.90;;;;;;5028047;28;20030;-53
2023/07/29 10:33:05;;;;;;;5.20;4.75;;;22.90;99.90;;;;;;5026854;28;20488;-57
2023/07/29 10:35:33;;;;;;;5.50;5.00;;;22.90;99.90;;;;;;5026746;28;20026;-58
2023/07/29 10:38:00;;;;;;;5.20;4.68;;;22.90;99.90;;;;;;5030906;28;20395;-58
2023/07/29 10:40:25;;;;;;;5.93;4.43;;;23.00;99.90;;;;;;5025845;28;20483;-53
2023/07/29 10:43:11;;;;;;;6.72;4.38;;;23.00;99.90;;;;;;5030199;28;20039;-55
2023/07/29 10:45:38;;;;;;;4.10;3.78;;;22.90;99.90;;;;;;5033440;28;20033;-58
2023/07/29 10:48:10;;;;;;;4.95;4.45;;;22.80;99.90;;;;;;5029668;28;20050;-55
2023/07/29 10:50:36;;;;;;;4.53;4.13;;;22.80;99.90;;;;;;5026829;28;20036;-57
2023/07/29 10:53:02;;;;;;;4.85;4.20;;;22.70;99.90;;;;;;5028094;28;20033;-56
2023/07/29 10:55:30;;;;;;;4.65;4.28;;;22.70;99.90;;;;;;5030740;28;20045;-56
2023/07/29 10:58:11;;;;;;;4.63;4.15;;;22.50;99.90;;;;;;5014684;28;20101;-55
2023/07/29 11:00:38;;;;;;;4.50;4.10;;;22.40;99.90;;;;;;5029780;28;20045;-53
2023/07/29 11:03:06;;;;;;;4.60;4.20;;;22.30;99.90;;;;;;5007410;28;20033;-53
2023/07/29 11:05:53;;;;;;;4.72;4.32;;;22.30;99.90;;;;;;5029366;28;20048;-56
2023/07/29 11:08:28;;;;;;;4.38;3.97;;;22.20;99.90;;;;;;5028090;28;20018;-55
2023/07/29 11:11:02;;;;;;;3.92;3.25;;;22.20;99.90;;;;;;5031800;28;20052;-54
2023/07/29 11:13:29;;;;;;;3.58;2.95;;;22.10;99.90;;;;;;5027660;28;20104;-56
2023/07/29 11:15:56;;;;;;;3.90;2.90;;;22.10;99.90;;;;;;5031956;28;20029;-57
2023/07/29 11:18:22;;;;;;;2.78;2.33;;;22.10;99.90;;;;;;5032446;28;20013;-54
2023/07/29 11:20:50;;;;;;;2.65;2.25;;;22.10;99.90;;;;;;5034524;28;20018;-54
2023/07/29 11:23:16;;;;;;;3.08;2.25;;;22.10;99.90;;;;;;5027620;28;20488;-57
2023/07/29 11:25:42;;;;;;;2.45;2.25;;;22.20;99.90;;;;;;5032719;28;20025;-57
2023/07/29 11:28:08;;;;;;;2.50;2.30;;;22.30;99.90;;;;;;5035771;28;20535;-56
2023/07/29 11:30:34;;;;;;;2.70;2.33;;;22.40;99.90;;;;;;5033488;28;20671;-53
2023/07/29 11:32:59;;;;;;;6.35;2.50;;;22.50;99.90;;;;;;5035063;28;20041;-58
2023/07/29 11:35:25;;;;;;;3.22;2.38;;;22.60;99.90;;;;;;5032544;28;20051;-57
2023/07/29 11:37:53;;;;;;;2.40;2.17;;;22.70;99.90;;;;;;5039726;28;20052;-59
2023/07/29 11:40:20;;;;;;;2.95;2.50;;;22.80;99.90;;;;;;5028035;28;20037;-55
2023/07/29 11:42:47;;;;;;;3.65;3.10;;;22.80;99.90;;;;;;5032666;28;20049;-56
2023/07/29 11:45:14;;;;;;;2.78;2.58;;;22.90;99.90;;;;;;5035315;28;20013;-55
2023/07/29 11:47:40;;;;;;;3.95;2.78;;;22.90;99.90;;;;;;5033245;28;20028;-58
2023/07/29 11:50:09;;;;;;;2.92;2.45;;;22.90;99.90;;;;;;5020864;28;20048;-55
2023/07/29 11:52:39;;;;;;;3.00;2.70;;;23.00;99.90;;;;;;5031755;28;20052;-58
2023/07/29 11:55:05;;;;;;;4.43;3.15;;;23.10;99.90;;;;;;5033040;28;20047;-58
2023/07/29 11:57:35;;;;;;;3.28;2.85;;;23.00;99.90;;;;;;5028122;28;20027;-57
2023/07/29 12:00:07;;;;;;;2.97;2.67;;;22.90;99.90;;;;;;5014507;28;20052;-58
2023/07/29 12:02:36;;;;;;;4.05;2.95;;;22.90;99.90;;;;;;5036095;28;20025;-53
2023/07/29 12:05:04;;;;;;;2.70;2.47;;;22.90;99.90;;;;;;5030064;28;20099;-54
2023/07/29 12:07:29;;;;;;;3.28;2.78;;;23.00;99.90;;;;;;5034644;28;20466;-57
2023/07/29 12:09:55;;;;;;;2.60;2.40;;;23.00;99.90;;;;;;5030464;28;20029;-56
2023/07/29 12:12:23;;;;;;;2.60;2.40;;;23.00;99.90;;;;;;5032688;28;20033;-54
2023/07/29 12:14:49;;;;;;;3.10;2.72;;;23.00;99.90;;;;;;5032556;28;20488;-53
2023/07/29 12:17:15;;;;;;;2.88;2.30;;;23.00;99.90;;;;;;5031763;28;20071;-56
2023/07/29 12:19:42;;;;;;;4.95;2.50;;;23.10;99.90;;;;;;5030105;28;20030;-54
2023/07/29 12:22:09;;;;;;;2.30;2.10;;;23.20;99.90;;;;;;5021378;28;20515;-56
2023/07/29 12:24:40;;;;;;;2.70;1.90;;;23.30;99.90;;;;;;5029292;28;20052;-57
2023/07/29 12:27:10;;;;;;;1.60;1.50;;;23.30;99.90;;;;;;5036492;28;20020;-57
2023/07/29 12:29:43;;;;;;;2.67;1.90;;;23.30;99.90;;;;;;5028292;28;20377;-58
2023/07/29 12:32:11;;;;;;;2.47;2.00;;;23.40;99.90;;;;;;5034512;28;20410;-58
2023/07/29 12:34:39;;;;;;;2.15;1.95;;;23.40;99.90;;;;;;5027802;28;20033;-59
2023/07/29 12:37:05;;;;;;;1.67;1.58;;;23.50;99.90;;;;;;5026418;28;20028;-57